Main page
METAR-TAF:

METAR-TAF

Airports :

Jersey Airport

Jersey,

latitude: 49-13N, longitude: 002-12W, elevation: 84 m

Current weather observation

The report was made 29 minutes ago, at 21:50 UTC
Wind 12 kt from the Northwest
Temperature 6°C
Humidity 81%
Pressure 999 hPa
Visibility 10 km or more
Few clouds at a height of 2200 ft
Scattered clouds at a height of 3200 ft
light rain showers

METAR: EGJJ 222150Z 32012KT 9999 -SHRA FEW022 SCT032 06/03 Q0999

Time: 22:19 (22:19 UTC)

Forecast

The report was made 2 hours and 15 minutes ago, at 20:04 UTC
Forecast valid from 22 at 21 UTC to 23 at 06 UTC
Wind 16 kt from the Northwest
Visibility 10 km or more
Scattered clouds at a height of 2000 ft
Probability 30% :
Temporary
from 22 at 21 UTC to 23 at 06 UTC
Wind 22 kt from the West/Northwest with gusts up to 32 kt
Visibility: 8000 m
Broken clouds at a height of 1500 ft, Cumulonimbus.
rain showers, small hail or snow pellets

TAF: EGJJ 222004Z 2221/2306 32016KT 9999 SCT020 PROB30 TEMPO 2221/2306 29022G32KT 8000 SHRAGS BKN015CB

Weather observations and forecasts of more than 4000 airports (METAR and TAF reports).

The available stations are represented by yellow and red dots on the map.

Hover mouse over dot to see the name of the station.

Then click to see weather observations and forecasts.

To change the map : click on the green buttons with a black cross to zoom in, on the green button with a dash to zoom out, or on the green arrows for adjacent maps.


METAR-TAF: